FW9333 Weather Reports


Display with metric or nautical units.
time (UTC)temp
F
wind
direction
speed
MPH
gust
MPH
rain 1hr
in
rain 24hr
in
rain mn
in
humidity
%
barometer
mb
20260510033021 55 5 0.0 0.0 0.00 0.19 0.19 87 1009.4
20260510031527 55 52 0.0 0.0 0.00 0.19 0.19 87 1009.2
20260510030020 55 52 0.0 1.0 0.00 0.19 0.19 87 1009.1
20260510024519 55 58 0.0 0.0 0.00 0.19 0.19 87 1009.0
20260510023019 55 58 0.0 0.0 0.00 0.19 0.19 86 1008.8
20260510021525 55 58 0.0 0.0 0.00 0.19 0.19 86 1008.9
20260510020025 56 58 0.0 0.0 0.00 0.19 0.19 86 1008.6
20260510014517 56 58 0.0 0.0 0.00 0.19 0.19 85 1008.5
20260510013018 57 58 0.0 0.0 0.00 0.19 0.19 85 1008.2
20260510011517 57 58 0.0 0.0 0.00 0.19 0.19 84 1008.2
20260510010016 57 58 0.0 0.0 0.00 0.19 0.19 84 1008.0
20260510004518 58 58 0.0 0.0 0.00 0.19 0.19 84 1007.9
20260510003015 58 58 0.0 0.0 0.00 0.19 0.19 83 1007.6
20260510001515 58 58 0.0 0.0 0.00 0.19 0.19 84 1007.4
20260510000018 59 58 0.0 0.0 0.00 0.19 0.19 83 1007.2
20260509234515 59 59 0.0 2.0 0.00 0.19 0.19 83 1007.1
20260509233013 60 78 0.0 5.0 0.00 0.19 0.19 83 1006.9
20260509231512 60 298 0.0 4.0 0.00 0.19 0.19 81 1007.0
20260509230010 61 53 0.0 7.0 0.00 0.19 0.19 81 1007.1
20260509224508 61 40 0.0 6.0 0.00 0.19 0.19 81 1007.2
20260509223010 61 57 0.0 2.0 0.00 0.19 0.19 80 1007.3
20260509221507 61 49 0.0 4.0 0.00 0.19 0.19 81 1007.4
20260509220008 62 79 0.0 3.0 0.00 0.19 0.19 80 1007.3
20260509214505 62 340 0.0 7.0 0.00 0.19 0.19 81 1007.5
20260509213009 63 200 0.0 5.0 0.00 0.19 0.19 79 1007.6
20260509211504 63 190 0.0 3.0 0.00 0.19 0.19 77 1007.5
20260509210005 63 155 0.0 8.0 0.00 0.19 0.19 79 1007.5
20260509204503 63 16 0.0 6.0 0.00 0.19 0.19 76 1007.5
20260509203100 63 90 0.0 4.0 0.00 0.19 0.19 81 1007.6
20260509201557 63 175 0.0 2.0 0.00 0.19 0.19 82 1007.9
20260509200109 62 285 0.0 5.0 0.00 0.19 0.19 81 1008.0
20260509194556 62 114 0.0 2.0 0.00 0.19 0.19 82 1008.3
20260509193153 62 135 0.0 8.0 0.00 0.19 0.19 84 1008.3
20260509191551 62 247 0.0 4.0 0.00 0.19 0.19 85 1008.4
20260509190049 61 78 0.0 3.0 0.00 0.19 0.19 86 1008.4
20260509184547 60 101 0.0 1.0 0.00 0.19 0.19 87 1008.4
20260509183100 60 101 0.0 2.0 0.00 0.19 0.19 88 1008.6
20260509181542 59 119 0.0 0.0 0.00 0.19 0.19 88 1008.6
20260509180041 59 94 0.0 2.0 0.00 0.19 0.19 88 1008.5
20260509174547 59 77 0.0 2.0 0.00 0.19 0.19 89 1008.4
20260509173042 58 81 0.0 3.0 0.00 0.19 0.19 91 1008.5
20260509171540 57 47 0.0 0.0 0.00 0.19 0.19 90 1008.6
20260509170033 56 47 0.0 0.0 0.00 0.19 0.19 90 1008.8
20260509164531 56 47 0.0 0.0 0.00 0.19 0.19 90 1008.7
20260509163042 56 49 0.0 0.0 0.00 0.19 0.19 90 1008.7
20260509161541 55 243 0.0 0.0 0.00 0.19 0.19 90 1008.7
20260509160030 55 243 0.0 0.0 0.00 0.19 0.19 90 1008.9
20260509154529 56 243 0.0 0.0 0.00 0.19 0.19 90 1009.2
20260509153043 55 243 0.0 0.0 0.00 0.19 0.19 90 1009.2
20260509151528 55 243 0.0 0.0 0.01 0.19 0.19 90 1009.4
20260509150037 54 243 0.0 0.0 0.01 0.19 0.19 90 1009.3
20260509144526 54 243 0.0 0.0 0.02 0.19 0.19 90 1009.6
20260509143026 54 243 0.0 0.0 0.02 0.19 0.19 90 1009.5
20260509141526 54 243 0.0 0.0 0.01 0.18 0.18 90 1009.4
20260509140030 53 282 0.0 0.0 0.02 0.18 0.18 90 1009.5
20260509134524 53 282 0.0 0.0 0.02 0.17 0.17 90 1009.6
20260509133024 53 282 0.0 0.0 0.03 0.17 0.17 90 1009.5
20260509131525 53 282 0.0 0.0 0.05 0.17 0.17 90 1009.7
20260509130023 53 282 0.0 0.0 0.04 0.16 0.16 89 1009.6
20260509124523 53 282 0.0 0.0 0.03 0.15 0.15 90 1009.9
20260509123022 52 281 0.0 0.0 0.03 0.14 0.14 89 1009.9
20260509121522 52 281 0.0 0.0 0.02 0.12 0.12 90 1010.0
20260509120028 52 280 0.0 0.0 0.03 0.12 0.12 90 1010.0
20260509114523 52 280 0.0 0.0 0.04 0.11 0.11 89 1010.1
20260509113020 52 280 0.0 0.0 0.05 0.11 0.11 89 1009.9
20260509111520 52 280 0.0 0.0 0.04 0.10 0.10 89 1009.8
20260509110019 52 280 0.0 0.0 0.03 0.09 0.09 89 1009.7
20260509104519 52 280 0.0 0.0 0.03 0.07 0.07 89 1009.7
20260509103018 52 280 0.0 0.0 0.02 0.06 0.06 88 1009.7
20260509101516 52 263 0.0 0.0 0.03 0.06 0.06 88 1009.7
20260509100017 52 263 0.0 0.0 0.03 0.06 0.06 88 1009.9
20260509094515 52 263 0.0 0.0 0.03 0.04 0.04 87 1010.1
20260509093014 53 263 0.0 0.0 0.04 0.04 0.04 86 1010.4
20260509091513 53 263 0.0 0.0 0.03 0.03 0.03 86 1010.5
20260509090012 53 263 0.0 0.0 0.03 0.03 0.03 85 1010.5
20260509084510 54 263 0.0 0.0 0.01 0.01 0.01 83 1010.4
20260509083014 54 263 0.0 3.0 0.00 0.00 0.00 81 1010.4
20260509081508 54 279 1.0 7.0 0.00 0.00 0.00 79 1010.1
20260509080009 54 40 0.0 1.0 0.00 0.00 0.00 79 1009.5
20260509074506 53 61 0.0 0.0 0.00 0.00 0.00 80 1008.9
20260509073006 53 61 0.0 2.0 0.00 0.00 0.00 79 1008.8
20260509071506 53 61 0.0 0.0 0.00 0.00 0.00 79 1008.6
20260509070004 54 61 0.0 0.0 0.00 0.00 0.00 81 1008.5
20260509064503 54 61 0.0 0.0 0.00 0.00 0.00 81 1008.6
20260509063001 54 61 0.0 0.0 0.00 0.00 0.00 81 1008.7
20260509061603 54 61 0.0 0.0 0.00 0.00 0.00 81 1008.8
20260509054609 54 61 0.0 0.0 0.00 0.00 0.00 79 1009.1
20260509053053 55 61 0.0 0.0 0.00 0.00 0.00 79 1009.4
20260509051550 55 61 0.0 0.0 0.00 0.00 0.00 79 1009.7
20260509050053 55 61 0.0 0.0 0.00 0.00 0.00 79 1009.9
20260509044546 55 61 0.0 0.0 0.00 0.00 0.00 78 1009.9
20260509043054 56 61 0.0 0.0 0.00 0.00 0.00 78 1010.1
20260509041544 56 61 0.0 0.0 0.00 0.00 0.00 78 1010.2
20260509040045 56 61 0.0 0.0 0.00 0.00 0.00 77 1010.3
20260509034541 56 61 0.0 0.0 0.00 0.00 0.00 76 1010.3